Wetterdaten: Woche 25.03.24 - 31.03.24 (KW13)
Datum Zeit Temp. I. Temp. A. Feuchte I. Feuchte A. Luftdruck Regen Wind Richtung Sonnenschein Solar Taupunkt Windchill Windböen
25.03.2024 00:00 20,9 °C 5,1 °C 50 % 89 % 1001,3 hPa 0,4 l/m² 18,0 km/h (3 Bft) W-SW 0,00 h 0 W/m² 3,4 °C -2,1 °C 25,5 km/h (4 Bft)
25.03.2024 01:00 20,9 °C 5,2 °C 50 % 88 % 1001,7 hPa 0,0 l/m² 15,8 km/h (3 Bft) W-SW 0,00 h 0 W/m² 3,4 °C -1,0 °C 21,1 km/h (4 Bft)
25.03.2024 02:00 20,9 °C 5,3 °C 50 % 88 % 1002,1 hPa 0,0 l/m² 14,3 km/h (3 Bft) W-SW 0,00 h 0 W/m² 3,5 °C -0,2 °C 18,9 km/h (3 Bft)
25.03.2024 03:00 20,9 °C 5,2 °C 50 % 87 % 1002,8 hPa 0,2 l/m² 16,1 km/h (3 Bft) W-SW 0,00 h 0 W/m² 3,3 °C -1,2 °C 22,0 km/h (4 Bft)
25.03.2024 04:00 20,9 °C 4,8 °C 50 % 88 % 1003,5 hPa 0,0 l/m² 12,3 km/h (2 Bft) W-SW 0,00 h 0 W/m² 3,1 °C 0,6 °C 18,2 km/h (3 Bft)
25.03.2024 05:00 20,9 °C 4,7 °C 50 % 88 % 1004,1 hPa 0,0 l/m² 12,3 km/h (2 Bft) W-SW 0,00 h 0 W/m² 2,9 °C 0,3 °C 16,9 km/h (3 Bft)
25.03.2024 06:00 20,9 °C 4,7 °C 50 % 89 % 1004,7 hPa 0,0 l/m² 10,8 km/h (2 Bft) SW 0,03 h 19 W/m² 3,1 °C 1,3 °C 15,7 km/h (3 Bft)
25.03.2024 07:00 20,9 °C 5,2 °C 50 % 88 % 1005,5 hPa 0,0 l/m² 12,7 km/h (3 Bft) SW 0,62 h 91 W/m² 3,4 °C 0,7 °C 18,0 km/h (3 Bft)
25.03.2024 08:00 20,9 °C 6,5 °C 50 % 83 % 1006,2 hPa 0,0 l/m² 15,1 km/h (3 Bft) W-SW 1,00 h 200 W/m² 3,8 °C 1,0 °C 20,8 km/h (4 Bft)
25.03.2024 09:00 21,0 °C 6,8 °C 50 % 82 % 1006,8 hPa 0,0 l/m² 15,0 km/h (3 Bft) W-SW 1,00 h 191 W/m² 3,9 °C 1,3 °C 20,5 km/h (4 Bft)
25.03.2024 10:00 21,0 °C 8,0 °C 50 % 80 % 1007,1 hPa 0,0 l/m² 13,5 km/h (3 Bft) W-SW 1,00 h 477 W/m² 4,8 °C 3,5 °C 18,2 km/h (3 Bft)
25.03.2024 11:00 21,1 °C 8,4 °C 50 % 77 % 1007,1 hPa 0,0 l/m² 14,2 km/h (3 Bft) SW 1,00 h 347 W/m² 4,7 °C 3,6 °C 18,8 km/h (3 Bft)
25.03.2024 12:00 21,1 °C 8,5 °C 49 % 78 % 1007,1 hPa 0,0 l/m² 15,1 km/h (3 Bft) SW 1,00 h 416 W/m² 4,9 °C 3,4 °C 20,1 km/h (4 Bft)
25.03.2024 13:00 21,1 °C 8,7 °C 49 % 77 % 1006,9 hPa 0,0 l/m² 6,6 km/h (2 Bft) W-NW 1,00 h 387 W/m² 4,9 °C 8,1 °C 11,7 km/h (2 Bft)
25.03.2024 14:00 21,1 °C 8,9 °C 49 % 73 % 1006,7 hPa 0,0 l/m² 6,4 km/h (2 Bft) W 1,00 h 275 W/m² 4,3 °C 8,0 °C 10,0 km/h (2 Bft)
25.03.2024 15:00 20,9 °C 9,6 °C 50 % 66 % 1006,4 hPa 0,0 l/m² 8,8 km/h (2 Bft) W-SW 1,00 h 243 W/m² 3,5 °C 7,8 °C 13,2 km/h (3 Bft)
25.03.2024 16:00 21,0 °C 9,1 °C 50 % 67 % 1005,9 hPa 0,0 l/m² 4,9 km/h (1 Bft) W 1,00 h 132 W/m² 3,3 °C 8,6 °C 7,7 km/h (2 Bft)
25.03.2024 17:00 21,1 °C 9,2 °C 50 % 65 % 1005,6 hPa 0,0 l/m² 2,0 km/h (1 Bft) W 0,87 h 106 W/m² 3,0 °C 9,2 °C 4,0 km/h (1 Bft)
25.03.2024 18:00 21,1 °C 6,9 °C 50 % 74 % 1005,7 hPa 0,0 l/m² 1,2 km/h (1 Bft) NW 0,00 h 15 W/m² 2,6 °C 6,9 °C 2,1 km/h (1 Bft)
25.03.2024 19:00 21,0 °C 4,5 °C 50 % 82 % 1005,6 hPa 0,0 l/m² 1,3 km/h (1 Bft) N 0,00 h 0 W/m² 1,7 °C 4,5 °C 2,9 km/h (1 Bft)
25.03.2024 20:00 20,9 °C 2,4 °C 50 % 88 % 1005,4 hPa 0,0 l/m² 0,1 km/h (0 Bft) N 0,00 h 0 W/m² 0,7 °C 2,4 °C 0,2 km/h (0 Bft)
25.03.2024 21:00 20,9 °C 1,5 °C 50 % 90 % 1005,4 hPa 0,0 l/m² 0,0 km/h (0 Bft) N 0,00 h 0 W/m² 0,0 °C 1,5 °C 0,0 km/h (0 Bft)
25.03.2024 22:00 21,0 °C 0,7 °C 50 % 91 % 1005,2 hPa 0,0 l/m² 0,0 km/h (0 Bft) N 0,00 h 0 W/m² -0,6 °C 0,7 °C 0,0 km/h (0 Bft)
25.03.2024 23:00 20,9 °C 0,2 °C 50 % 92 % 1004,9 hPa 0,0 l/m² 0,0 km/h (0 Bft) N 0,00 h 0 W/m² -1,0 °C 0,2 °C 0,0 km/h (0 Bft)
26.03.2024 00:00 21,0 °C -0,4 °C 49 % 92 % 1004,4 hPa 0,0 l/m² 0,0 km/h (0 Bft) N 0,00 h 0 W/m² -1,5 °C -0,4 °C 0,0 km/h (0 Bft)
26.03.2024 01:00 21,1 °C -0,7 °C 49 % 93 % 1003,9 hPa 0,0 l/m² 0,0 km/h (0 Bft) N 0,00 h 0 W/m² -1,7 °C -0,7 °C 0,0 km/h (0 Bft)
26.03.2024 02:00 21,1 °C -1,2 °C 49 % 93 % 1003,6 hPa 0,0 l/m² 0,0 km/h (0 Bft) N 0,00 h 0 W/m² -2,1 °C -1,2 °C 0,0 km/h (0 Bft)
26.03.2024 03:00 21,2 °C -1,4 °C 49 % 93 % 1003,1 hPa 0,0 l/m² 0,0 km/h (0 Bft) N-NW 0,00 h 0 W/m² -2,3 °C -1,4 °C 0,0 km/h (0 Bft)
26.03.2024 04:00 21,3 °C -1,7 °C 49 % 94 % 1002,5 hPa 0,0 l/m² 0,0 km/h (0 Bft) N-NW 0,00 h 0 W/m² -2,6 °C -1,7 °C 0,0 km/h (0 Bft)
26.03.2024 05:00 21,3 °C -1,9 °C 49 % 94 % 1002,0 hPa 0,0 l/m² 0,0 km/h (0 Bft) N-NW 0,00 h 5 W/m² -2,8 °C -1,9 °C 0,0 km/h (0 Bft)
26.03.2024 06:00 21,3 °C -2,0 °C 49 % 94 % 1001,7 hPa 0,0 l/m² 0,0 km/h (0 Bft) N-NW 0,20 h 36 W/m² -2,9 °C -2,0 °C 0,0 km/h (0 Bft)
26.03.2024 07:00 21,4 °C -0,4 °C 49 % 95 % 1001,4 hPa 0,0 l/m² 0,9 km/h (0 Bft) N-NW 1,00 h 144 W/m² -1,1 °C -0,4 °C 1,7 km/h (1 Bft)
26.03.2024 08:00 21,4 °C 3,9 °C 49 % 90 % 1000,6 hPa 0,0 l/m² 10,7 km/h (2 Bft) O-NO 1,00 h 293 W/m² 2,4 °C 0,5 °C 15,6 km/h (3 Bft)
26.03.2024 09:00 21,5 °C 7,3 °C 49 % 80 % 999,9 hPa 0,0 l/m² 14,6 km/h (3 Bft) O 1,00 h 464 W/m² 4,2 °C 2,2 °C 19,0 km/h (3 Bft)
26.03.2024 10:00 21,5 °C 9,7 °C 49 % 72 % 999,1 hPa 0,0 l/m² 13,8 km/h (3 Bft) O 1,00 h 566 W/m² 5,0 °C 5,4 °C 18,1 km/h (3 Bft)
26.03.2024 11:00 21,5 °C 11,3 °C 49 % 67 % 998,3 hPa 0,0 l/m² 12,9 km/h (3 Bft) O 1,00 h 692 W/m² 5,3 °C 7,7 °C 17,4 km/h (3 Bft)
26.03.2024 12:00 21,4 °C 11,6 °C 49 % 65 % 997,5 hPa 0,0 l/m² 13,2 km/h (3 Bft) O 1,00 h 474 W/m² 5,2 °C 8,0 °C 17,7 km/h (3 Bft)
26.03.2024 13:00 21,4 °C 13,1 °C 49 % 63 % 996,7 hPa 0,0 l/m² 13,5 km/h (3 Bft) O 1,00 h 471 W/m² 6,2 °C 9,5 °C 18,0 km/h (3 Bft)
26.03.2024 14:00 21,3 °C 13,6 °C 49 % 60 % 995,9 hPa 0,0 l/m² 12,9 km/h (3 Bft) O 1,00 h 374 W/m² 6,0 °C 10,3 °C 17,1 km/h (3 Bft)
26.03.2024 15:00 21,3 °C 13,4 °C 49 % 60 % 994,9 hPa 0,0 l/m² 13,3 km/h (3 Bft) O-NO 1,00 h 218 W/m² 5,8 °C 10,0 °C 18,0 km/h (3 Bft)
26.03.2024 16:00 21,3 °C 12,3 °C 49 % 64 % 994,1 hPa 0,0 l/m² 15,5 km/h (3 Bft) O 1,00 h 112 W/m² 5,8 °C 7,8 °C 20,8 km/h (4 Bft)
26.03.2024 17:00 21,2 °C 11,5 °C 49 % 69 % 993,7 hPa 0,0 l/m² 15,3 km/h (3 Bft) O 0,93 h 86 W/m² 6,0 °C 6,9 °C 20,0 km/h (4 Bft)
26.03.2024 18:00 21,2 °C 10,3 °C 49 % 66 % 993,3 hPa 0,0 l/m² 13,0 km/h (3 Bft) O 0,00 h 22 W/m² 4,3 °C 6,7 °C 16,9 km/h (3 Bft)
26.03.2024 19:00 21,1 °C 7,9 °C 49 % 74 % 993,1 hPa 0,0 l/m² 4,9 km/h (1 Bft) O-NO 0,00 h 0 W/m² 3,5 °C 7,8 °C 6,8 km/h (2 Bft)
26.03.2024 20:00 21,1 °C 5,3 °C 49 % 83 % 992,5 hPa 0,0 l/m² 2,7 km/h (1 Bft) O-NO 0,00 h 0 W/m² 2,6 °C 5,3 °C 3,8 km/h (1 Bft)
26.03.2024 21:00 21,1 °C 4,3 °C 49 % 88 % 992,3 hPa 0,0 l/m² 1,6 km/h (1 Bft) O-NO 0,00 h 0 W/m² 2,4 °C 4,3 °C 2,0 km/h (1 Bft)
26.03.2024 22:00 21,1 °C 4,0 °C 49 % 88 % 991,7 hPa 0,0 l/m² 1,9 km/h (1 Bft) O-NO 0,00 h 0 W/m² 2,3 °C 4,0 °C 2,7 km/h (1 Bft)
26.03.2024 23:00 21,1 °C 2,9 °C 49 % 89 % 991,2 hPa 0,0 l/m² 0,1 km/h (0 Bft) O-NO 0,00 h 0 W/m² 1,3 °C 2,9 °C 0,2 km/h (0 Bft)
27.03.2024 00:00 21,1 °C 2,0 °C 49 % 91 % 991,0 hPa 0,0 l/m² 0,0 km/h (0 Bft) O-NO 0,00 h 0 W/m² 0,6 °C 2,0 °C 0,0 km/h (0 Bft)
27.03.2024 01:00 21,2 °C 1,3 °C 49 % 91 % 990,6 hPa 0,0 l/m² 0,0 km/h (0 Bft) O-NO 0,00 h 0 W/m² 0,0 °C 1,3 °C 0,2 km/h (0 Bft)
27.03.2024 02:00 21,2 °C 1,0 °C 49 % 92 % 990,0 hPa 0,0 l/m² 3,2 km/h (1 Bft) O-NO 0,00 h 0 W/m² -0,2 °C 0,9 °C 4,5 km/h (1 Bft)
27.03.2024 03:00 21,1 °C 1,1 °C 49 % 93 % 989,6 hPa 0,0 l/m² 1,0 km/h (0 Bft) O-NO 0,00 h 0 W/m² 0,1 °C 1,1 °C 1,3 km/h (1 Bft)
27.03.2024 04:00 21,2 °C 0,7 °C 49 % 93 % 988,9 hPa 0,0 l/m² 0,0 km/h (0 Bft) NO 0,00 h 0 W/m² -0,3 °C 0,7 °C 0,0 km/h (0 Bft)
27.03.2024 05:00 21,2 °C 0,8 °C 49 % 93 % 988,2 hPa 0,0 l/m² 0,0 km/h (0 Bft) NO 0,00 h 0 W/m² -0,2 °C 0,8 °C 0,0 km/h (0 Bft)
27.03.2024 06:00 21,1 °C 0,9 °C 49 % 93 % 988,0 hPa 0,0 l/m² 0,0 km/h (0 Bft) NO 0,13 h 30 W/m² -0,0 °C 0,9 °C 0,0 km/h (0 Bft)
27.03.2024 07:00 21,1 °C 2,3 °C 49 % 94 % 988,0 hPa 0,0 l/m² 0,4 km/h (0 Bft) W 1,02 h 141 W/m² 1,4 °C 2,3 °C 1,0 km/h (0 Bft)
27.03.2024 08:00 21,2 °C 5,8 °C 49 % 87 % 988,2 hPa 0,0 l/m² 0,4 km/h (0 Bft) W-NW 1,00 h 293 W/m² 3,8 °C 5,8 °C 1,3 km/h (1 Bft)
27.03.2024 09:00 21,2 °C 9,9 °C 48 % 79 % 987,7 hPa 0,0 l/m² 4,2 km/h (1 Bft) O 1,00 h 452 W/m² 6,3 °C 9,8 °C 6,7 km/h (2 Bft)
27.03.2024 10:00 21,3 °C 13,9 °C 48 % 64 % 987,4 hPa 0,0 l/m² 9,2 km/h (2 Bft) SO 1,00 h 617 W/m² 7,2 °C 12,4 °C 14,1 km/h (3 Bft)
27.03.2024 11:00 21,2 °C 15,7 °C 48 % 61 % 987,1 hPa 0,0 l/m² 10,4 km/h (2 Bft) SO 1,00 h 616 W/m² 8,1 °C 13,7 °C 15,0 km/h (3 Bft)
27.03.2024 12:00 21,2 °C 16,3 °C 49 % 59 % 986,8 hPa 0,0 l/m² 13,9 km/h (3 Bft) O 1,00 h 566 W/m² 8,3 °C 13,2 °C 18,0 km/h (3 Bft)
27.03.2024 13:00 21,2 °C 16,7 °C 49 % 60 % 986,4 hPa 0,0 l/m² 13,1 km/h (3 Bft) O 1,00 h 412 W/m² 8,9 °C 13,9 °C 17,6 km/h (3 Bft)
27.03.2024 14:00 21,2 °C 16,5 °C 49 % 64 % 986,1 hPa 0,0 l/m² 15,8 km/h (3 Bft) O 1,00 h 325 W/m² 9,7 °C 12,9 °C 20,5 km/h (4 Bft)
27.03.2024 15:00 21,2 °C 16,6 °C 49 % 64 % 986,2 hPa 0,0 l/m² 14,1 km/h (3 Bft) O-NO 1,00 h 267 W/m² 9,8 °C 13,4 °C 19,0 km/h (3 Bft)
27.03.2024 16:00 21,1 °C 15,8 °C 49 % 66 % 986,2 hPa 0,0 l/m² 12,1 km/h (2 Bft) O-NO 1,00 h 125 W/m² 9,4 °C 13,2 °C 16,8 km/h (3 Bft)
27.03.2024 17:00 21,1 °C 14,5 °C 49 % 70 % 986,1 hPa 0,0 l/m² 9,8 km/h (2 Bft) O-NO 0,38 h 48 W/m² 9,1 °C 12,7 °C 13,7 km/h (3 Bft)
27.03.2024 18:00 21,0 °C 13,5 °C 49 % 74 % 986,1 hPa 0,0 l/m² 2,9 km/h (1 Bft) O-NO 0,00 h 27 W/m² 8,9 °C 13,4 °C 4,7 km/h (1 Bft)
27.03.2024 19:00 20,9 °C 10,8 °C 49 % 83 % 985,9 hPa 0,0 l/m² 0,0 km/h (0 Bft) O-NO 0,00 h 0 W/m² 8,1 °C 10,8 °C 0,0 km/h (0 Bft)
27.03.2024 20:00 20,9 °C 8,7 °C 49 % 88 % 985,8 hPa 0,0 l/m² 0,0 km/h (0 Bft) O-NO 0,00 h 0 W/m² 6,8 °C 8,7 °C 0,0 km/h (0 Bft)
27.03.2024 21:00 21,0 °C 7,6 °C 49 % 91 % 985,5 hPa 0,0 l/m² 0,1 km/h (0 Bft) SO 0,00 h 0 W/m² 6,2 °C 7,6 °C 0,3 km/h (0 Bft)
27.03.2024 22:00 21,0 °C 6,9 °C 49 % 91 % 985,0 hPa 0,0 l/m² 0,8 km/h (0 Bft) SO 0,00 h 0 W/m² 5,5 °C 6,9 °C 1,5 km/h (1 Bft)
27.03.2024 23:00 21,0 °C 7,6 °C 49 % 91 % 985,0 hPa 0,0 l/m² 4,3 km/h (1 Bft) W 0,00 h 0 W/m² 6,2 °C 7,4 °C 8,4 km/h (2 Bft)
28.03.2024 00:00 21,0 °C 9,7 °C 49 % 89 % 984,4 hPa 0,0 l/m² 10,1 km/h (2 Bft) NW 0,00 h 0 W/m² 7,9 °C 7,3 °C 18,8 km/h (3 Bft)
28.03.2024 01:00 21,1 °C 9,7 °C 49 % 88 % 984,5 hPa 0,0 l/m² 8,2 km/h (2 Bft) W-SW 0,00 h 0 W/m² 7,9 °C 8,3 °C 12,9 km/h (3 Bft)
28.03.2024 02:00 21,1 °C 9,6 °C 49 % 89 % 984,7 hPa 0,0 l/m² 6,7 km/h (2 Bft) W-SW 0,00 h 0 W/m² 7,9 °C 8,9 °C 9,7 km/h (2 Bft)
28.03.2024 03:00 21,1 °C 9,4 °C 49 % 88 % 985,2 hPa 0,0 l/m² 21,6 km/h (4 Bft) SW 0,00 h 0 W/m² 7,5 °C 2,5 °C 30,2 km/h (5 Bft)
28.03.2024 04:00 21,0 °C 7,4 °C 49 % 87 % 986,3 hPa 0,2 l/m² 26,1 km/h (4 Bft) SW 0,00 h 0 W/m² 5,4 °C -1,9 °C 37,1 km/h (5 Bft)
28.03.2024 05:00 20,9 °C 6,4 °C 49 % 88 % 986,6 hPa 0,0 l/m² 17,6 km/h (3 Bft) SW 0,00 h 0 W/m² 4,6 °C -0,3 °C 26,0 km/h (4 Bft)
28.03.2024 06:00 20,9 °C 6,1 °C 49 % 88 % 987,2 hPa 0,0 l/m² 11,7 km/h (2 Bft) SW 0,00 h 6 W/m² 4,2 °C 2,5 °C 18,3 km/h (3 Bft)
28.03.2024 07:00 20,9 °C 6,3 °C 49 % 88 % 987,4 hPa 0,0 l/m² 5,1 km/h (1 Bft) W-SW 0,53 h 49 W/m² 4,5 °C 5,8 °C 9,5 km/h (2 Bft)
28.03.2024 08:00 21,0 °C 7,6 °C 49 % 86 % 987,8 hPa 0,0 l/m² 10,9 km/h (2 Bft) S-SW 1,00 h 253 W/m² 5,5 °C 4,3 °C 15,8 km/h (3 Bft)
28.03.2024 09:00 21,0 °C 9,8 °C 49 % 81 % 988,1 hPa 0,0 l/m² 16,6 km/h (3 Bft) S 0,98 h 515 W/m² 6,7 °C 4,3 °C 24,0 km/h (4 Bft)
28.03.2024 10:00 21,0 °C 11,4 °C 49 % 78 % 987,6 hPa 0,0 l/m² 17,8 km/h (3 Bft) S 1,02 h 644 W/m² 7,6 °C 5,9 °C 25,1 km/h (4 Bft)
28.03.2024 11:00 21,1 °C 12,7 °C 49 % 71 % 987,8 hPa 0,2 l/m² 20,2 km/h (4 Bft) S 1,00 h 533 W/m² 7,6 °C 6,9 °C 30,1 km/h (5 Bft)
28.03.2024 12:00 21,1 °C 12,0 °C 49 % 69 % 988,9 hPa 0,0 l/m² 23,3 km/h (4 Bft) S 0,98 h 191 W/m² 6,4 °C 5,0 °C 34,5 km/h (5 Bft)
28.03.2024 13:00 21,1 °C 11,3 °C 49 % 70 % 989,7 hPa 0,0 l/m² 23,7 km/h (4 Bft) S 1,00 h 209 W/m² 6,1 °C 4,1 °C 34,8 km/h (5 Bft)
28.03.2024 14:00 21,0 °C 10,9 °C 49 % 72 % 990,9 hPa 0,0 l/m² 24,0 km/h (4 Bft) S-SW 1,02 h 177 W/m² 6,1 °C 3,4 °C 31,5 km/h (5 Bft)
28.03.2024 15:00 20,9 °C 11,1 °C 49 % 72 % 991,5 hPa 0,0 l/m² 23,1 km/h (4 Bft) S-SW 1,00 h 308 W/m² 6,2 °C 3,9 °C 31,4 km/h (5 Bft)
28.03.2024 16:00 21,1 °C 11,8 °C 49 % 67 % 991,8 hPa 0,0 l/m² 27,1 km/h (5 Bft) S-SW 0,98 h 267 W/m² 5,9 °C 3,9 °C 36,7 km/h (5 Bft)
28.03.2024 17:00 21,1 °C 10,8 °C 49 % 68 % 993,3 hPa 0,0 l/m² 20,4 km/h (4 Bft) SW 0,65 h 117 W/m² 5,2 °C 4,3 °C 28,2 km/h (5 Bft)
28.03.2024 18:00 21,1 °C 8,7 °C 49 % 72 % 994,4 hPa 0,0 l/m² 10,6 km/h (2 Bft) SW 0,00 h 13 W/m² 4,0 °C 6,0 °C 14,9 km/h (3 Bft)
28.03.2024 19:00 21,0 °C 7,2 °C 49 % 78 % 995,3 hPa 0,0 l/m² 3,6 km/h (1 Bft) W-SW 0,00 h 0 W/m² 3,6 °C 7,2 °C 5,2 km/h (1 Bft)
28.03.2024 20:00 20,9 °C 6,6 °C 49 % 84 % 996,8 hPa 0,8 l/m² 12,2 km/h (2 Bft) W-SW 0,00 h 0 W/m² 4,0 °C 2,3 °C 17,1 km/h (3 Bft)
28.03.2024 21:00 20,9 °C 6,2 °C 49 % 86 % 997,0 hPa 0,0 l/m² 5,1 km/h (1 Bft) SW 0,00 h 0 W/m² 4,1 °C 5,7 °C 7,3 km/h (2 Bft)
28.03.2024 22:00 21,0 °C 4,5 °C 49 % 89 % 997,5 hPa 0,0 l/m² 1,1 km/h (1 Bft) SW 0,00 h 0 W/m² 2,8 °C 4,5 °C 2,2 km/h (1 Bft)
28.03.2024 23:00 21,0 °C 4,1 °C 49 % 91 % 998,3 hPa 0,0 l/m² 2,2 km/h (1 Bft) SW 0,00 h 0 W/m² 2,8 °C 4,1 °C 3,9 km/h (1 Bft)
29.03.2024 00:00 21,0 °C 4,6 °C 49 % 89 % 999,2 hPa 0,0 l/m² 4,2 km/h (1 Bft) NO 0,00 h 0 W/m² 2,9 °C 4,5 °C 7,3 km/h (2 Bft)
29.03.2024 01:00 21,0 °C 5,3 °C 49 % 85 % 999,4 hPa 0,0 l/m² 7,4 km/h (2 Bft) S-SO 0,00 h 0 W/m² 3,0 °C 3,4 °C 11,5 km/h (2 Bft)
29.03.2024 02:00 21,1 °C 4,6 °C 49 % 84 % 999,7 hPa 0,0 l/m² 4,1 km/h (1 Bft) S-SO 0,00 h 0 W/m² 2,2 °C 4,6 °C 7,3 km/h (2 Bft)
29.03.2024 03:00 21,1 °C 4,4 °C 49 % 84 % 1000,1 hPa 0,0 l/m² 2,6 km/h (1 Bft) O-SO 0,00 h 0 W/m² 2,0 °C 4,4 °C 4,0 km/h (1 Bft)
29.03.2024 04:00 21,0 °C 4,3 °C 49 % 86 % 999,7 hPa 0,0 l/m² 0,4 km/h (0 Bft) O-SO 0,00 h 0 W/m² 2,1 °C 4,3 °C 1,5 km/h (1 Bft)
29.03.2024 05:00 21,1 °C 5,7 °C 49 % 82 % 999,3 hPa 0,0 l/m² 2,9 km/h (1 Bft) SO 0,00 h 7 W/m² 2,9 °C 5,6 °C 5,0 km/h (1 Bft)
29.03.2024 06:00 21,1 °C 6,0 °C 49 % 83 % 999,7 hPa 0,0 l/m² 3,9 km/h (1 Bft) S-SO 0,00 h 11 W/m² 3,3 °C 5,8 °C 6,3 km/h (2 Bft)
29.03.2024 07:00 21,0 °C 7,1 °C 49 % 81 % 999,8 hPa 0,0 l/m² 2,6 km/h (1 Bft) SO 0,43 h 63 W/m² 4,1 °C 7,1 °C 4,3 km/h (1 Bft)
29.03.2024 08:00 21,0 °C 8,2 °C 49 % 79 % 1000,0 hPa 0,0 l/m² 8,6 km/h (2 Bft) SO 0,82 h 74 W/m² 4,7 °C 6,5 °C 12,1 km/h (2 Bft)
29.03.2024 09:00 21,1 °C 9,2 °C 48 % 78 % 1000,4 hPa 0,0 l/m² 12,6 km/h (3 Bft) SO 0,98 h 150 W/m² 5,6 °C 5,4 °C 17,0 km/h (3 Bft)
29.03.2024 10:00 21,1 °C 10,3 °C 48 % 77 % 999,9 hPa 0,0 l/m² 10,9 km/h (2 Bft) O-SO 1,00 h 144 W/m² 6,5 °C 7,5 °C 14,7 km/h (3 Bft)
29.03.2024 11:00 21,0 °C 11,0 °C 48 % 75 % 999,5 hPa 0,0 l/m² 13,5 km/h (3 Bft) O-SO 1,00 h 203 W/m² 6,8 °C 7,1 °C 17,6 km/h (3 Bft)
29.03.2024 12:00 20,9 °C 12,6 °C 49 % 70 % 999,4 hPa 0,0 l/m² 14,1 km/h (3 Bft) O-SO 1,00 h 305 W/m² 7,4 °C 8,7 °C 18,8 km/h (3 Bft)
29.03.2024 13:00 20,9 °C 14,5 °C 48 % 66 % 999,1 hPa 0,0 l/m² 21,4 km/h (4 Bft) SO 1,00 h 474 W/m² 8,3 °C 8,8 °C 30,1 km/h (5 Bft)
29.03.2024 14:00 20,9 °C 14,4 °C 48 % 72 % 998,9 hPa 0,0 l/m² 16,2 km/h (3 Bft) S-SO 1,00 h 359 W/m² 9,3 °C 10,3 °C 22,4 km/h (4 Bft)
29.03.2024 15:00 20,8 °C 13,5 °C 49 % 77 % 999,4 hPa 1,8 l/m² 10,0 km/h (2 Bft) S 1,00 h 98 W/m² 9,4 °C 11,5 °C 14,4 km/h (3 Bft)
29.03.2024 16:00 20,8 °C 13,0 °C 49 % 80 % 999,9 hPa 0,0 l/m² 11,7 km/h (2 Bft) S-SW 1,00 h 136 W/m² 9,6 °C 10,2 °C 16,0 km/h (3 Bft)
29.03.2024 17:00 20,7 °C 12,6 °C 49 % 82 % 999,9 hPa 0,0 l/m² 9,4 km/h (2 Bft) S-SW 0,92 h 71 W/m² 9,5 °C 10,7 °C 12,6 km/h (2 Bft)
29.03.2024 18:00 20,7 °C 11,9 °C 49 % 85 % 1000,0 hPa 0,0 l/m² 1,4 km/h (1 Bft) S-SW 0,05 h 30 W/m² 9,5 °C 11,9 °C 2,3 km/h (1 Bft)
29.03.2024 19:00 20,7 °C 11,3 °C 49 % 87 % 1000,1 hPa 0,0 l/m² 2,6 km/h (1 Bft) S-SO 0,00 h 0 W/m² 9,2 °C 11,2 °C 4,2 km/h (1 Bft)
29.03.2024 20:00 20,7 °C 11,1 °C 49 % 85 % 1000,7 hPa 0,0 l/m² 2,3 km/h (1 Bft) W-NW 0,00 h 0 W/m² 8,7 °C 11,0 °C 3,6 km/h (1 Bft)
29.03.2024 21:00 20,8 °C 9,2 °C 49 % 90 % 1000,7 hPa 0,0 l/m² 0,5 km/h (0 Bft) W-NW 0,00 h 0 W/m² 7,5 °C 9,2 °C 1,0 km/h (0 Bft)
29.03.2024 22:00 20,8 °C 7,6 °C 49 % 92 % 1000,7 hPa 0,0 l/m² 0,1 km/h (0 Bft) W-NW 0,00 h 0 W/m² 6,3 °C 7,6 °C 0,3 km/h (0 Bft)
29.03.2024 23:00 20,8 °C 7,0 °C 49 % 93 % 1000,9 hPa 0,0 l/m² 0,2 km/h (0 Bft) W-NW 0,00 h 0 W/m² 5,9 °C 7,0 °C 0,4 km/h (0 Bft)
30.03.2024 00:00 20,8 °C 7,1 °C 49 % 93 % 1000,8 hPa 0,0 l/m² 0,0 km/h (0 Bft) W-NW 0,00 h 0 W/m² 6,0 °C 7,1 °C 0,0 km/h (0 Bft)
30.03.2024 01:00 20,8 °C 7,1 °C 49 % 93 % 1000,5 hPa 0,0 l/m² 0,1 km/h (0 Bft) W-NW 0,00 h 0 W/m² 6,0 °C 7,1 °C 0,3 km/h (0 Bft)
30.03.2024 02:00 20,9 °C 6,7 °C 49 % 93 % 1000,5 hPa 0,0 l/m² 0,0 km/h (0 Bft) W-NW 0,00 h 0 W/m² 5,7 °C 6,7 °C 0,0 km/h (0 Bft)
30.03.2024 03:00 20,8 °C 6,5 °C 49 % 93 % 1000,1 hPa 0,0 l/m² 0,0 km/h (0 Bft) W-NW 0,00 h 0 W/m² 5,5 °C 6,5 °C 0,0 km/h (0 Bft)
30.03.2024 04:00 20,9 °C 6,2 °C 49 % 93 % 999,9 hPa 0,0 l/m² 0,0 km/h (0 Bft) W-NW 0,00 h 0 W/m² 5,2 °C 6,2 °C 0,0 km/h (0 Bft)
30.03.2024 05:00 20,9 °C 5,9 °C 49 % 93 % 999,6 hPa 0,0 l/m² 0,0 km/h (0 Bft) W-NW 0,00 h 0 W/m² 4,9 °C 5,9 °C 0,0 km/h (0 Bft)
30.03.2024 06:00 20,9 °C 5,8 °C 49 % 93 % 999,4 hPa 0,0 l/m² 0,0 km/h (0 Bft) W-NW 0,07 h 24 W/m² 4,8 °C 5,8 °C 0,0 km/h (0 Bft)
30.03.2024 07:00 20,9 °C 6,7 °C 49 % 95 % 999,5 hPa 0,0 l/m² 0,0 km/h (0 Bft) W-NW 1,00 h 122 W/m² 5,9 °C 6,7 °C 0,0 km/h (0 Bft)
30.03.2024 08:00 21,0 °C 10,2 °C 49 % 91 % 999,6 hPa 0,0 l/m² 3,6 km/h (1 Bft) O 1,00 h 230 W/m² 8,8 °C 10,2 °C 6,1 km/h (2 Bft)
30.03.2024 09:00 21,1 °C 13,2 °C 49 % 79 % 999,9 hPa 0,0 l/m² 6,0 km/h (2 Bft) O 1,00 h 282 W/m² 9,7 °C 12,6 °C 9,4 km/h (2 Bft)
30.03.2024 10:00 21,1 °C 16,0 °C 49 % 71 % 999,5 hPa 0,0 l/m² 5,9 km/h (2 Bft) O-SO 1,00 h 456 W/m² 10,7 °C 15,7 °C 9,5 km/h (2 Bft)
30.03.2024 11:00 21,1 °C 19,0 °C 49 % 64 % 999,2 hPa 0,0 l/m² 6,6 km/h (2 Bft) S-SO 1,00 h 631 W/m² 12,0 °C 18,6 °C 10,3 km/h (2 Bft)
30.03.2024 12:00 21,2 °C 20,6 °C 49 % 60 % 998,9 hPa 0,0 l/m² 2,2 km/h (1 Bft) S 1,02 h 451 W/m² 12,6 °C 20,5 °C 3,9 km/h (1 Bft)
30.03.2024 13:00 21,2 °C 21,0 °C 49 % 57 % 998,4 hPa 0,0 l/m² 0,6 km/h (0 Bft) S 0,98 h 303 W/m² 12,2 °C 21,0 °C 1,1 km/h (0 Bft)
30.03.2024 14:00 21,1 °C 20,9 °C 49 % 58 % 997,8 hPa 0,0 l/m² 0,6 km/h (0 Bft) S 1,00 h 188 W/m² 12,2 °C 20,9 °C 1,4 km/h (1 Bft)
30.03.2024 15:00 21,1 °C 19,6 °C 49 % 61 % 997,5 hPa 0,0 l/m² 2,3 km/h (1 Bft) O-NO 1,02 h 120 W/m² 11,9 °C 19,6 °C 4,2 km/h (1 Bft)
30.03.2024 16:00 21,0 °C 17,2 °C 49 % 76 % 997,1 hPa 0,0 l/m² 0,7 km/h (0 Bft) O-NO 0,72 h 63 W/m² 12,9 °C 17,2 °C 1,5 km/h (1 Bft)
30.03.2024 17:00 21,0 °C 15,0 °C 49 % 83 % 997,3 hPa 0,0 l/m² 0,0 km/h (0 Bft) O-NO 0,00 h 23 W/m² 12,1 °C 15,0 °C 0,0 km/h (0 Bft)
30.03.2024 18:00 21,0 °C 12,8 °C 49 % 86 % 997,2 hPa 0,0 l/m² 0,0 km/h (0 Bft) O-NO 0,00 h 7 W/m² 10,6 °C 12,8 °C 0,0 km/h (0 Bft)
30.03.2024 19:00 20,9 °C 11,7 °C 49 % 88 % 997,4 hPa 0,0 l/m² 0,1 km/h (0 Bft) O-NO 0,00 h 0 W/m² 9,9 °C 11,7 °C 0,2 km/h (0 Bft)
30.03.2024 20:00 20,9 °C 10,9 °C 50 % 90 % 998,1 hPa 0,0 l/m² 0,3 km/h (0 Bft) O-NO 0,00 h 0 W/m² 9,3 °C 10,9 °C 0,7 km/h (0 Bft)
30.03.2024 21:00 20,9 °C 10,3 °C 50 % 91 % 998,2 hPa 0,0 l/m² 0,8 km/h (0 Bft) O-NO 0,00 h 0 W/m² 9,0 °C 10,3 °C 1,4 km/h (1 Bft)
30.03.2024 22:00 21,0 °C 10,1 °C 50 % 92 % 998,4 hPa 0,0 l/m² 4,0 km/h (1 Bft) W-SW 0,00 h 0 W/m² 8,9 °C 10,1 °C 6,3 km/h (2 Bft)
30.03.2024 23:00 21,0 °C 11,0 °C 50 % 89 % 998,8 hPa 0,0 l/m² 2,4 km/h (1 Bft) W-SW 0,00 h 0 W/m² 9,3 °C 11,0 °C 3,9 km/h (1 Bft)
31.03.2024 00:00 21,0 °C 11,6 °C 50 % 86 % 998,7 hPa 0,0 l/m² 1,4 km/h (1 Bft) W 0,00 h 0 W/m² 9,3 °C 11,6 °C 4,0 km/h (1 Bft)
31.03.2024 01:00 21,0 °C 10,3 °C 50 % 86 % 998,7 hPa 0,0 l/m² 0,8 km/h (0 Bft) W 0,00 h 0 W/m² 8,1 °C 10,3 °C 2,1 km/h (1 Bft)
31.03.2024 03:00 20,9 °C 9,2 °C 50 % 88 % 998,6 hPa 0,0 l/m² 0,9 km/h (0 Bft) W 0,00 h 0 W/m² 7,4 °C 9,2 °C 2,0 km/h (1 Bft)
31.03.2024 04:00 20,9 °C 8,4 °C 50 % 89 % 998,8 hPa 0,0 l/m² 2,6 km/h (1 Bft) S-SW 0,00 h 0 W/m² 6,6 °C 8,4 °C 4,3 km/h (1 Bft)
31.03.2024 05:00 20,9 °C 8,1 °C 50 % 89 % 998,9 hPa 0,0 l/m² 0,7 km/h (0 Bft) S-SW 0,00 h 0 W/m² 6,4 °C 8,1 °C 1,2 km/h (1 Bft)
31.03.2024 06:00 20,9 °C 8,3 °C 50 % 91 % 998,9 hPa 0,0 l/m² 1,7 km/h (1 Bft) S-SW 0,00 h 0 W/m² 6,9 °C 8,3 °C 3,3 km/h (1 Bft)
31.03.2024 07:00 20,9 °C 9,1 °C 50 % 90 % 998,8 hPa 0,0 l/m² 1,2 km/h (1 Bft) SW 0,07 h 26 W/m² 7,5 °C 9,1 °C 2,2 km/h (1 Bft)
31.03.2024 08:00 20,9 °C 9,8 °C 50 % 90 % 998,8 hPa 0,0 l/m² 3,0 km/h (1 Bft) SW 1,00 h 83 W/m² 8,2 °C 9,8 °C 5,2 km/h (1 Bft)
31.03.2024 09:00 20,8 °C 11,3 °C 49 % 87 % 999,4 hPa 0,0 l/m² 8,4 km/h (2 Bft) W-SW 1,02 h 121 W/m² 9,3 °C 9,8 °C 12,3 km/h (2 Bft)
31.03.2024 10:00 20,8 °C 13,8 °C 49 % 78 % 998,9 hPa 0,0 l/m² 7,6 km/h (2 Bft) W-NW 1,00 h 407 W/m² 10,0 °C 12,6 °C 13,7 km/h (3 Bft)
31.03.2024 11:00 20,9 °C 15,6 °C 49 % 72 % 999,4 hPa 0,0 l/m² 6,9 km/h (2 Bft) W 0,98 h 589 W/m² 10,7 °C 14,9 °C 11,4 km/h (2 Bft)
31.03.2024 12:00 21,1 °C 16,8 °C 49 % 68 % 999,2 hPa 0,0 l/m² 6,3 km/h (2 Bft) W 1,00 h 615 W/m² 11,0 °C 16,3 °C 11,5 km/h (2 Bft)
31.03.2024 13:00 21,1 °C 17,1 °C 49 % 67 % 998,7 hPa 0,0 l/m² 6,3 km/h (2 Bft) NW 1,02 h 444 W/m² 11,0 °C 16,8 °C 10,4 km/h (2 Bft)
31.03.2024 14:00 21,1 °C 17,2 °C 49 % 69 % 998,7 hPa 0,0 l/m² 5,1 km/h (1 Bft) W 1,00 h 430 W/m² 11,4 °C 17,0 °C 7,9 km/h (2 Bft)
31.03.2024 15:00 21,1 °C 17,7 °C 50 % 69 % 998,7 hPa 0,0 l/m² 6,6 km/h (2 Bft) W 1,00 h 474 W/m² 11,9 °C 17,3 °C 10,4 km/h (2 Bft)
31.03.2024 16:00 21,1 °C 18,0 °C 50 % 68 % 998,5 hPa 0,0 l/m² 4,7 km/h (1 Bft) W 1,00 h 411 W/m² 11,9 °C 17,8 °C 7,5 km/h (2 Bft)
31.03.2024 17:00 21,1 °C 17,7 °C 50 % 68 % 997,7 hPa 0,0 l/m² 4,7 km/h (1 Bft) N-NW 1,00 h 225 W/m² 11,7 °C 17,7 °C 7,4 km/h (2 Bft)
31.03.2024 18:00 21,1 °C 17,2 °C 50 % 70 % 997,6 hPa 0,0 l/m² 3,2 km/h (1 Bft) N-NW 0,95 h 130 W/m² 11,7 °C 17,2 °C 5,0 km/h (1 Bft)
31.03.2024 19:00 21,1 °C 14,7 °C 50 % 79 % 997,7 hPa 0,0 l/m² 0,6 km/h (0 Bft) N-NW 0,00 h 11 W/m² 11,0 °C 14,7 °C 1,0 km/h (0 Bft)
31.03.2024 20:00 21,3 °C 12,4 °C 53 % 86 % 997,9 hPa 0,0 l/m² 0,2 km/h (0 Bft) N-NW 0,00 h 0 W/m² 10,2 °C 12,4 °C 0,4 km/h (0 Bft)
31.03.2024 21:00 21,6 °C 11,5 °C 53 % 89 % 997,8 hPa 0,0 l/m² 0,2 km/h (0 Bft) N 0,00 h 0 W/m² 9,8 °C 11,5 °C 0,4 km/h (0 Bft)
31.03.2024 22:00 21,4 °C 10,7 °C 52 % 91 % 997,7 hPa 0,0 l/m² 0,7 km/h (0 Bft) SW 0,00 h 0 W/m² 9,3 °C 10,7 °C 1,1 km/h (1 Bft)
31.03.2024 23:00 21,2 °C 9,8 °C 52 % 93 % 997,2 hPa 0,0 l/m² 0,6 km/h (0 Bft) SW 0,00 h 0 W/m² 8,7 °C 9,8 °C 1,1 km/h (1 Bft)
Min-Datum _ 30.03.24 26.03.24 29.03.24 30.03.24 28.03.24 - 31.03.24 - - - 26.03.24 25.03.24 31.03.24
_ Min-Zeit 00:10 06:16 15:01 14:32 00:25 - 23:01 - - - 06:16 00:24 23:01
Minimum _ 20,7 °C -2,3 °C 48 % 47 % 984,1 hPa - 0,0 km/h (0 Bft) - - - -3,1 °C -6,5 °C 0,0 km/h (0 Bft)
Max-Datum _ 31.03.24 30.03.24 31.03.24 30.03.24 25.03.24 29.03.24 28.03.24 - 31.03.24 28.03.24 30.03.24 30.03.24 28.03.24
_ Max-Zeit 22:01 14:31 22:01 08:00 13:15 15:48 16:37 - 13:23 11:35 14:11 14:31 20:28
Maximum _ 21,6 °C 21,5 °C 53 % 95 % 1007,2 hPa 1,8 l/m² 42,9 km/h
S-SW (6 Bft)
- 0,05 h 884 W/m² 14,7 °C 21,5 °C 61,2 km/h
W-SW (7 Bft)
Durchschnitt _ 21,0 °C 9,0 °C 49 % 81 % 996,8 hPa #3,6 l/m² 6,7 km/h (2 Bft) O-NO #73:23 h 138 W/m² 5,8 °C 7,3 °C 9,7 km/h (2 Bft)
© 2009 Mathias Hoßbach